sensor_id;sensor_type;location;lat;lon;timestamp;pressure;altitude;pressure_sealevel;temperature;humidity
40171;BME280;37650;52.790;18.268;2023-06-22T00:02:38;100738.21;;;20.16;100.00
40171;BME280;37650;52.790;18.268;2023-06-22T00:05:59;100739.70;;;20.18;100.00
40171;BME280;37650;52.790;18.268;2023-06-22T00:09:21;100744.45;;;20.19;100.00
40171;BME280;37650;52.790;18.268;2023-06-22T00:12:42;100742.06;;;20.20;100.00
40171;BME280;37650;52.790;18.268;2023-06-22T00:16:03;100747.92;;;20.22;100.00
40171;BME280;37650;52.790;18.268;2023-06-22T00:19:24;100755.41;;;20.25;100.00
40171;BME280;37650;52.790;18.268;2023-06-22T00:22:46;100759.30;;;20.25;100.00
40171;BME280;37650;52.790;18.268;2023-06-22T00:26:08;100765.98;;;20.24;100.00
40171;BME280;37650;52.790;18.268;2023-06-22T00:29:30;100762.97;;;20.21;100.00
40171;BME280;37650;52.790;18.268;2023-06-22T00:32:51;100769.89;;;20.22;100.00
40171;BME280;37650;52.790;18.268;2023-06-22T00:36:13;100774.17;;;20.22;100.00
40171;BME280;37650;52.790;18.268;2023-06-22T00:39:36;100776.88;;;20.21;100.00
40171;BME280;37650;52.790;18.268;2023-06-22T00:42:58;100769.77;;;20.21;100.00
40171;BME280;37650;52.790;18.268;2023-06-22T00:46:20;100769.93;;;20.21;100.00
40171;BME280;37650;52.790;18.268;2023-06-22T00:49:41;100773.70;;;20.23;100.00
40171;BME280;37650;52.790;18.268;2023-06-22T00:53:03;100775.31;;;20.23;100.00
40171;BME280;37650;52.790;18.268;2023-06-22T00:56:29;100775.10;;;20.21;100.00
40171;BME280;37650;52.790;18.268;2023-06-22T00:59:50;100772.73;;;20.22;100.00
40171;BME280;37650;52.790;18.268;2023-06-22T01:03:11;100771.92;;;20.21;100.00
40171;BME280;37650;52.790;18.268;2023-06-22T01:06:38;100766.61;;;20.17;100.00
40171;BME280;37650;52.790;18.268;2023-06-22T01:10:10;100765.89;;;20.15;100.00
40171;BME280;37650;52.790;18.268;2023-06-22T01:13:57;100757.29;;;20.13;100.00
40171;BME280;37650;52.790;18.268;2023-06-22T01:17:21;100750.49;;;20.11;100.00
40171;BME280;37650;52.790;18.268;2023-06-22T01:20:43;100745.54;;;20.08;100.00
40171;BME280;37650;52.790;18.268;2023-06-22T01:24:20;100746.96;;;20.06;100.00
40171;BME280;37650;52.790;18.268;2023-06-22T01:28:09;100750.59;;;20.02;100.00
40171;BME280;37650;52.790;18.268;2023-06-22T01:31:36;100752.41;;;19.95;100.00
40171;BME280;37650;52.790;18.268;2023-06-22T01:35:00;100756.27;;;19.90;100.00
40171;BME280;37650;52.790;18.268;2023-06-22T01:38:22;100757.62;;;19.84;100.00
40171;BME280;37650;52.790;18.268;2023-06-22T01:41:43;100760.13;;;19.78;100.00
40171;BME280;37650;52.790;18.268;2023-06-22T01:45:07;100761.95;;;19.72;100.00
40171;BME280;37650;52.790;18.268;2023-06-22T01:48:28;100763.43;;;19.64;100.00
40171;BME280;37650;52.790;18.268;2023-06-22T01:51:49;100763.59;;;19.56;100.00
40171;BME280;37650;52.790;18.268;2023-06-22T01:55:10;100764.25;;;19.50;100.00
40171;BME280;37650;52.790;18.268;2023-06-22T01:58:32;100770.15;;;19.46;100.00
40171;BME280;37650;52.790;18.268;2023-06-22T02:02:09;100774.05;;;19.41;100.00
40171;BME280;37650;52.790;18.268;2023-06-22T02:05:36;100775.00;;;19.35;100.00
40171;BME280;37650;52.790;18.268;2023-06-22T02:09:02;100771.38;;;19.28;100.00
40171;BME280;37650;52.790;18.268;2023-06-22T02:12:25;100772.24;;;19.23;100.00
40171;BME280;37650;52.790;18.268;2023-06-22T02:15:48;100777.41;;;19.17;100.00
40171;BME280;37650;52.790;18.268;2023-06-22T02:19:10;100779.27;;;19.14;100.00
40171;BME280;37650;52.790;18.268;2023-06-22T02:22:31;100781.80;;;19.10;100.00
40171;BME280;37650;52.790;18.268;2023-06-22T02:25:52;100783.48;;;19.09;100.00
40171;BME280;37650;52.790;18.268;2023-06-22T02:29:14;100789.11;;;19.07;100.00
40171;BME280;37650;52.790;18.268;2023-06-22T02:32:37;100790.09;;;19.04;100.00
40171;BME280;37650;52.790;18.268;2023-06-22T02:35:58;100794.71;;;18.98;100.00
40171;BME280;37650;52.790;18.268;2023-06-22T02:39:24;100802.10;;;18.94;100.00
40171;BME280;37650;52.790;18.268;2023-06-22T02:42:45;100804.08;;;18.90;100.00
40171;BME280;37650;52.790;18.268;2023-06-22T02:46:07;100802.89;;;18.87;100.00
40171;BME280;37650;52.790;18.268;2023-06-22T02:49:28;100803.64;;;18.84;100.00
40171;BME280;37650;52.790;18.268;2023-06-22T02:52:50;100809.14;;;18.81;100.00
40171;BME280;37650;52.790;18.268;2023-06-22T02:56:11;100812.59;;;18.77;100.00
40171;BME280;37650;52.790;18.268;2023-06-22T02:59:33;100817.25;;;18.74;100.00
40171;BME280;37650;52.790;18.268;2023-06-22T03:02:59;100816.58;;;18.70;100.00
40171;BME280;37650;52.790;18.268;2023-06-22T03:06:21;100817.98;;;18.65;100.00
40171;BME280;37650;52.790;18.268;2023-06-22T03:09:48;100819.71;;;18.63;100.00
40171;BME280;37650;52.790;18.268;2023-06-22T03:13:10;100825.89;;;18.58;100.00
40171;BME280;37650;52.790;18.268;2023-06-22T03:16:31;100829.70;;;18.57;100.00
40171;BME280;37650;52.790;18.268;2023-06-22T03:19:54;100829.83;;;18.55;100.00
40171;BME280;37650;52.790;18.268;2023-06-22T03:23:15;100826.71;;;18.57;100.00
40171;BME280;37650;52.790;18.268;2023-06-22T03:26:36;100829.05;;;18.56;100.00
40171;BME280;37650;52.790;18.268;2023-06-22T03:29:57;100836.13;;;18.53;100.00
40171;BME280;37650;52.790;18.268;2023-06-22T03:33:18;100830.27;;;18.53;100.00
40171;BME280;37650;52.790;18.268;2023-06-22T03:36:40;100842.66;;;18.54;100.00
40171;BME280;37650;52.790;18.268;2023-06-22T03:40:01;100847.73;;;18.56;100.00
40171;BME280;37650;52.790;18.268;2023-06-22T03:43:26;100855.33;;;18.59;100.00
40171;BME280;37650;52.790;18.268;2023-06-22T03:46:47;100859.55;;;18.60;100.00
40171;BME280;37650;52.790;18.268;2023-06-22T03:50:09;100869.73;;;18.59;100.00
40171;BME280;37650;52.790;18.268;2023-06-22T03:53:30;100869.29;;;18.60;100.00
40171;BME280;37650;52.790;18.268;2023-06-22T03:56:51;100869.30;;;18.60;100.00
40171;BME280;37650;52.790;18.268;2023-06-22T04:00:13;100861.27;;;18.64;100.00
40171;BME280;37650;52.790;18.268;2023-06-22T04:03:37;100859.92;;;18.68;100.00
40171;BME280;37650;52.790;18.268;2023-06-22T04:06:58;100858.58;;;18.64;100.00
40171;BME280;37650;52.790;18.268;2023-06-22T04:10:20;100857.05;;;18.65;100.00
40171;BME280;37650;52.790;18.268;2023-06-22T04:13:41;100858.39;;;18.70;100.00
40171;BME280;37650;52.790;18.268;2023-06-22T04:17:02;100859.34;;;18.74;100.00
40171;BME280;37650;52.790;18.268;2023-06-22T04:20:24;100857.39;;;18.77;100.00
40171;BME280;37650;52.790;18.268;2023-06-22T04:23:46;100861.10;;;18.80;100.00
40171;BME280;37650;52.790;18.268;2023-06-22T04:27:08;100864.77;;;18.86;100.00
40171;BME280;37650;52.790;18.268;2023-06-22T04:30:29;100866.46;;;18.94;100.00
40171;BME280;37650;52.790;18.268;2023-06-22T04:33:52;100871.11;;;19.02;100.00
40171;BME280;37650;52.790;18.268;2023-06-22T04:37:14;100872.48;;;19.00;100.00
40171;BME280;37650;52.790;18.268;2023-06-22T04:40:36;100871.40;;;19.00;100.00
40171;BME280;37650;52.790;18.268;2023-06-22T04:43:58;100867.41;;;19.04;100.00
40171;BME280;37650;52.790;18.268;2023-06-22T04:47:21;100867.63;;;19.11;100.00
40171;BME280;37650;52.790;18.268;2023-06-22T04:50:42;100869.46;;;19.21;100.00
40171;BME280;37650;52.790;18.268;2023-06-22T04:54:05;100873.24;;;19.31;100.00
40171;BME280;37650;52.790;18.268;2023-06-22T04:57:27;100866.38;;;19.38;100.00
40171;BME280;37650;52.790;18.268;2023-06-22T05:00:52;100867.61;;;19.49;100.00
40171;BME280;37650;52.790;18.268;2023-06-22T05:04:13;100871.50;;;19.60;100.00
40171;BME280;37650;52.790;18.268;2023-06-22T05:07:35;100871.05;;;19.67;100.00
40171;BME280;37650;52.790;18.268;2023-06-22T05:10:56;100873.03;;;19.72;100.00
40171;BME280;37650;52.790;18.268;2023-06-22T05:14:18;100871.13;;;19.82;100.00
40171;BME280;37650;52.790;18.268;2023-06-22T05:17:39;100871.05;;;19.96;100.00
40171;BME280;37650;52.790;18.268;2023-06-22T05:21:03;100878.59;;;20.06;100.00
40171;BME280;37650;52.790;18.268;2023-06-22T05:24:24;100886.39;;;20.19;100.00
40171;BME280;37650;52.790;18.268;2023-06-22T05:27:45;100888.69;;;20.32;100.00
40171;BME280;37650;52.790;18.268;2023-06-22T05:31:07;100893.87;;;20.52;100.00
40171;BME280;37650;52.790;18.268;2023-06-22T05:34:28;100900.86;;;20.75;100.00
40171;BME280;37650;52.790;18.268;2023-06-22T05:37:50;100905.50;;;20.82;100.00
40171;BME280;37650;52.790;18.268;2023-06-22T05:41:12;100903.77;;;20.86;100.00
40171;BME280;37650;52.790;18.268;2023-06-22T05:44:33;100898.18;;;20.97;100.00
40171;BME280;37650;52.790;18.268;2023-06-22T05:47:55;100907.20;;;21.00;100.00
40171;BME280;37650;52.790;18.268;2023-06-22T05:51:16;100915.99;;;21.17;100.00
40171;BME280;37650;52.790;18.268;2023-06-22T05:54:37;100917.36;;;21.30;100.00
40171;BME280;37650;52.790;18.268;2023-06-22T05:58:00;100919.23;;;21.48;100.00
40171;BME280;37650;52.790;18.268;2023-06-22T06:01:21;100915.93;;;21.59;100.00
40171;BME280;37650;52.790;18.268;2023-06-22T06:04:43;100919.22;;;21.65;100.00
40171;BME280;37650;52.790;18.268;2023-06-22T06:08:05;100911.78;;;21.60;100.00
40171;BME280;37650;52.790;18.268;2023-06-22T06:11:27;100907.09;;;21.74;100.00
40171;BME280;37650;52.790;18.268;2023-06-22T06:14:48;100907.23;;;22.03;100.00
40171;BME280;37650;52.790;18.268;2023-06-22T06:18:12;100907.96;;;22.31;100.00
40171;BME280;37650;52.790;18.268;2023-06-22T06:21:34;100907.45;;;22.40;100.00
40171;BME280;37650;52.790;18.268;2023-06-22T06:24:55;100903.14;;;22.47;100.00
40171;BME280;37650;52.790;18.268;2023-06-22T06:28:16;100903.56;;;22.55;100.00
40171;BME280;37650;52.790;18.268;2023-06-22T06:31:37;100900.26;;;22.62;100.00
40171;BME280;37650;52.790;18.268;2023-06-22T06:34:58;100901.21;;;22.69;100.00
40171;BME280;37650;52.790;18.268;2023-06-22T06:38:20;100896.92;;;22.69;99.95
40171;BME280;37650;52.790;18.268;2023-06-22T06:41:41;100899.61;;;22.85;100.00
40171;BME280;37650;52.790;18.268;2023-06-22T06:45:06;100892.52;;;23.03;100.00
40171;BME280;37650;52.790;18.268;2023-06-22T06:48:27;100900.48;;;23.20;99.67
40171;BME280;37650;52.790;18.268;2023-06-22T06:51:48;100914.02;;;23.43;99.20
40171;BME280;37650;52.790;18.268;2023-06-22T06:55:09;100910.02;;;23.44;95.97
40171;BME280;37650;52.790;18.268;2023-06-22T06:58:32;100902.05;;;23.53;98.35
40171;BME280;37650;52.790;18.268;2023-06-22T07:01:54;100898.37;;;23.82;96.96
40171;BME280;37650;52.790;18.268;2023-06-22T07:05:15;100900.73;;;24.05;96.57
40171;BME280;37650;52.790;18.268;2023-06-22T07:08:37;100903.34;;;24.18;95.66
40171;BME280;37650;52.790;18.268;2023-06-22T07:12:00;100904.23;;;24.48;94.82
40171;BME280;37650;52.790;18.268;2023-06-22T07:15:21;100899.31;;;24.65;93.49
40171;BME280;37650;52.790;18.268;2023-06-22T07:18:42;100904.17;;;24.81;92.28
40171;BME280;37650;52.790;18.268;2023-06-22T07:22:04;100906.93;;;24.92;92.18
40171;BME280;37650;52.790;18.268;2023-06-22T07:25:25;100906.00;;;24.95;88.51
40171;BME280;37650;52.790;18.268;2023-06-22T07:28:46;100901.71;;;24.91;89.49
40171;BME280;37650;52.790;18.268;2023-06-22T07:32:08;100905.08;;;25.01;88.15
40171;BME280;37650;52.790;18.268;2023-06-22T07:35:30;100907.90;;;25.29;88.90
40171;BME280;37650;52.790;18.268;2023-06-22T07:38:51;100911.16;;;25.55;88.40
40171;BME280;37650;52.790;18.268;2023-06-22T07:42:14;100915.61;;;25.85;85.63
40171;BME280;37650;52.790;18.268;2023-06-22T07:45:39;100920.54;;;25.91;85.75
40171;BME280;37650;52.790;18.268;2023-06-22T07:49:02;100922.55;;;26.14;84.87
40171;BME280;37650;52.790;18.268;2023-06-22T07:52:24;100922.55;;;26.45;83.16
40171;BME280;37650;52.790;18.268;2023-06-22T07:55:50;100918.98;;;26.65;81.37
40171;BME280;37650;52.790;18.268;2023-06-22T07:59:12;100920.01;;;26.68;78.84
40171;BME280;37650;52.790;18.268;2023-06-22T08:02:33;100920.17;;;26.88;80.07
40171;BME280;37650;52.790;18.268;2023-06-22T08:05:55;100914.08;;;27.24;79.01
40171;BME280;37650;52.790;18.268;2023-06-22T08:09:16;100923.34;;;27.16;75.73
40171;BME280;37650;52.790;18.268;2023-06-22T08:12:37;100927.08;;;27.20;74.55
40171;BME280;37650;52.790;18.268;2023-06-22T08:15:58;100927.36;;;27.16;73.37
40171;BME280;37650;52.790;18.268;2023-06-22T08:19:19;100931.22;;;27.13;72.33
40171;BME280;37650;52.790;18.268;2023-06-22T08:22:41;100936.45;;;27.16;69.32
40171;BME280;37650;52.790;18.268;2023-06-22T08:26:02;100941.11;;;27.08;69.49
40171;BME280;37650;52.790;18.268;2023-06-22T08:29:27;100942.16;;;27.12;66.57
40171;BME280;37650;52.790;18.268;2023-06-22T08:32:48;100938.95;;;27.22;66.24
40171;BME280;37650;52.790;18.268;2023-06-22T08:36:09;100935.09;;;27.54;65.97
40171;BME280;37650;52.790;18.268;2023-06-22T08:39:31;100936.11;;;27.83;64.71
40171;BME280;37650;52.790;18.268;2023-06-22T08:42:52;100932.23;;;27.97;63.19
40171;BME280;37650;52.790;18.268;2023-06-22T08:46:13;100931.66;;;28.09;62.22
40171;BME280;37650;52.790;18.268;2023-06-22T08:49:35;100927.27;;;28.21;60.93
40171;BME280;37650;52.790;18.268;2023-06-22T08:52:58;100926.80;;;28.20;58.81
40171;BME280;37650;52.790;18.268;2023-06-22T08:56:19;100928.38;;;27.99;56.37
40171;BME280;37650;52.790;18.268;2023-06-22T08:59:41;100927.23;;;28.07;55.57
40171;BME280;37650;52.790;18.268;2023-06-22T09:03:06;100919.54;;;28.20;56.18
40171;BME280;37650;52.790;18.268;2023-06-22T09:06:31;100919.38;;;28.72;56.27
40171;BME280;37650;52.790;18.268;2023-06-22T09:09:53;100921.38;;;29.23;55.43
40171;BME280;37650;52.790;18.268;2023-06-22T09:13:14;100922.60;;;29.39;52.02
40171;BME280;37650;52.790;18.268;2023-06-22T09:16:35;100924.88;;;29.09;49.35
40171;BME280;37650;52.790;18.268;2023-06-22T09:19:56;100921.70;;;28.73;51.23
40171;BME280;37650;52.790;18.268;2023-06-22T09:23:17;100916.56;;;29.16;50.90
40171;BME280;37650;52.790;18.268;2023-06-22T09:26:39;100912.24;;;29.42;50.61
40171;BME280;37650;52.790;18.268;2023-06-22T09:30:00;100911.91;;;29.67;49.58
40171;BME280;37650;52.790;18.268;2023-06-22T09:33:22;100904.29;;;29.64;48.86
40171;BME280;37650;52.790;18.268;2023-06-22T09:36:42;100905.42;;;29.66;47.42
40171;BME280;37650;52.790;18.268;2023-06-22T09:40:07;100908.49;;;29.62;45.99
40171;BME280;37650;52.790;18.268;2023-06-22T09:43:33;100907.93;;;29.46;44.90
40171;BME280;37650;52.790;18.268;2023-06-22T09:46:57;100904.48;;;29.36;45.45
40171;BME280;37650;52.790;18.268;2023-06-22T09:50:19;100896.65;;;29.74;47.26
40171;BME280;37650;52.790;18.268;2023-06-22T09:53:40;100902.96;;;30.30;45.41
40171;BME280;37650;52.790;18.268;2023-06-22T09:57:01;100911.27;;;30.51;44.00
40171;BME280;37650;52.790;18.268;2023-06-22T10:00:23;100907.30;;;30.60;42.93
40171;BME280;37650;52.790;18.268;2023-06-22T10:03:44;100908.09;;;30.69;43.29
40171;BME280;37650;52.790;18.268;2023-06-22T10:07:06;100907.34;;;30.71;41.78
40171;BME280;37650;52.790;18.268;2023-06-22T10:10:27;100909.59;;;30.35;40.78
40171;BME280;37650;52.790;18.268;2023-06-22T10:13:48;100897.20;;;30.52;41.69
40171;BME280;37650;52.790;18.268;2023-06-22T10:17:09;100883.45;;;30.74;41.17
40171;BME280;37650;52.790;18.268;2023-06-22T10:20:30;100886.39;;;30.64;39.55
40171;BME280;37650;52.790;18.268;2023-06-22T10:23:51;100890.24;;;30.69;40.26
40171;BME280;37650;52.790;18.268;2023-06-22T10:27:13;100886.04;;;30.88;41.04
40171;BME280;37650;52.790;18.268;2023-06-22T10:30:34;100890.99;;;30.95;40.28
40171;BME280;37650;52.790;18.268;2023-06-22T10:33:55;100886.10;;;30.97;39.74
40171;BME280;37650;52.790;18.268;2023-06-22T10:37:17;100881.99;;;30.90;39.13
40171;BME280;37650;52.790;18.268;2023-06-22T10:40:38;100882.70;;;31.03;39.46
40171;BME280;37650;52.790;18.268;2023-06-22T10:44:01;100882.79;;;31.28;39.09
40171;BME280;37650;52.790;18.268;2023-06-22T10:47:23;100882.91;;;31.85;38.50
40171;BME280;37650;52.790;18.268;2023-06-22T10:50:44;100875.16;;;31.99;37.48
40171;BME280;37650;52.790;18.268;2023-06-22T10:54:05;100867.05;;;31.74;37.71
40171;BME280;37650;52.790;18.268;2023-06-22T10:57:26;100874.79;;;31.67;37.79
40171;BME280;37650;52.790;18.268;2023-06-22T11:00:48;100874.69;;;31.92;38.06
40171;BME280;37650;52.790;18.268;2023-06-22T11:04:09;100870.55;;;32.27;37.31
40171;BME280;37650;52.790;18.268;2023-06-22T11:07:30;100866.94;;;32.41;36.68
40171;BME280;37650;52.790;18.268;2023-06-22T11:10:52;100867.87;;;32.48;36.88
40171;BME280;37650;52.790;18.268;2023-06-22T11:14:13;100870.09;;;32.48;36.02
40171;BME280;37650;52.790;18.268;2023-06-22T11:17:34;100869.98;;;32.42;35.28
40171;BME280;37650;52.790;18.268;2023-06-22T11:20:55;100872.45;;;32.35;34.21
40171;BME280;37650;52.790;18.268;2023-06-22T11:24:17;100868.54;;;32.16;34.84
40171;BME280;37650;52.790;18.268;2023-06-22T11:27:39;100871.21;;;32.16;35.56
40171;BME280;37650;52.790;18.268;2023-06-22T11:31:01;100869.22;;;32.57;35.15
40171;BME280;37650;52.790;18.268;2023-06-22T11:34:23;100865.70;;;32.28;33.71
40171;BME280;37650;52.790;18.268;2023-06-22T11:37:43;100867.75;;;32.04;33.29
40171;BME280;37650;52.790;18.268;2023-06-22T11:41:06;100867.42;;;32.10;34.44
40171;BME280;37650;52.790;18.268;2023-06-22T11:44:34;100867.75;;;32.43;33.90
40171;BME280;37650;52.790;18.268;2023-06-22T11:47:55;100863.36;;;32.23;31.87
40171;BME280;37650;52.790;18.268;2023-06-22T11:51:30;100870.95;;;31.67;31.25
40171;BME280;37650;52.790;18.268;2023-06-22T11:54:52;100866.80;;;31.85;31.75
40171;BME280;37650;52.790;18.268;2023-06-22T11:58:13;100862.71;;;32.21;32.03
40171;BME280;37650;52.790;18.268;2023-06-22T12:01:35;100851.19;;;32.53;31.84
40171;BME280;37650;52.790;18.268;2023-06-22T12:05:02;100847.66;;;32.78;31.49
40171;BME280;37650;52.790;18.268;2023-06-22T12:08:26;100836.77;;;32.47;30.85
40171;BME280;37650;52.790;18.268;2023-06-22T12:11:47;100835.36;;;32.35;31.49
40171;BME280;37650;52.790;18.268;2023-06-22T12:15:23;100834.92;;;32.42;31.65
40171;BME280;37650;52.790;18.268;2023-06-22T12:22:58;100834.22;;;32.34;30.72
40171;BME280;37650;52.790;18.268;2023-06-22T12:26:20;100825.53;;;32.22;31.17
40171;BME280;37650;52.790;18.268;2023-06-22T12:29:41;100824.83;;;32.14;30.83
40171;BME280;37650;52.790;18.268;2023-06-22T12:33:02;100820.55;;;32.12;30.94
40171;BME280;37650;52.790;18.268;2023-06-22T12:36:24;100823.61;;;32.33;31.84
40171;BME280;37650;52.790;18.268;2023-06-22T12:39:46;100826.98;;;32.40;31.43
40171;BME280;37650;52.790;18.268;2023-06-22T12:43:07;100821.49;;;32.37;31.73
40171;BME280;37650;52.790;18.268;2023-06-22T12:46:28;100819.20;;;32.50;30.50
40171;BME280;37650;52.790;18.268;2023-06-22T12:49:51;100817.48;;;32.56;30.33
40171;BME280;37650;52.790;18.268;2023-06-22T12:53:15;100814.36;;;32.63;30.52
40171;BME280;37650;52.790;18.268;2023-06-22T12:56:37;100805.27;;;32.80;31.36
40171;BME280;37650;52.790;18.268;2023-06-22T12:59:59;100803.84;;;33.01;30.78
40171;BME280;37650;52.790;18.268;2023-06-22T13:03:22;100801.36;;;32.90;30.17
40171;BME280;37650;52.790;18.268;2023-06-22T13:06:46;100793.90;;;32.53;30.25
40171;BME280;37650;52.790;18.268;2023-06-22T13:10:09;100789.58;;;32.59;30.49
40171;BME280;37650;52.790;18.268;2023-06-22T13:13:30;100790.38;;;32.86;29.53
40171;BME280;37650;52.790;18.268;2023-06-22T13:16:52;100787.91;;;32.88;29.17
40171;BME280;37650;52.790;18.268;2023-06-22T13:20:14;100791.20;;;33.14;29.47
40171;BME280;37650;52.790;18.268;2023-06-22T13:23:35;100789.19;;;33.31;29.82
40171;BME280;37650;52.790;18.268;2023-06-22T13:26:56;100784.70;;;33.44;30.04
40171;BME280;37650;52.790;18.268;2023-06-22T13:30:18;100786.11;;;33.37;29.97
40171;BME280;37650;52.790;18.268;2023-06-22T13:33:39;100787.60;;;33.41;30.16
40171;BME280;37650;52.790;18.268;2023-06-22T13:37:01;100785.84;;;33.59;29.94
40171;BME280;37650;52.790;18.268;2023-06-22T13:40:22;100784.91;;;33.73;29.85
40171;BME280;37650;52.790;18.268;2023-06-22T13:45:05;100781.61;;;33.75;30.09
40171;BME280;37650;52.790;18.268;2023-06-22T13:48:27;100780.46;;;33.83;29.57
40171;BME280;37650;52.790;18.268;2023-06-22T13:51:49;100777.39;;;33.53;29.60
40171;BME280;37650;52.790;18.268;2023-06-22T13:55:11;100774.83;;;33.57;29.95
40171;BME280;37650;52.790;18.268;2023-06-22T13:58:32;100772.20;;;33.50;30.27
40171;BME280;37650;52.790;18.268;2023-06-22T14:01:53;100768.70;;;33.34;30.29
40171;BME280;37650;52.790;18.268;2023-06-22T14:05:14;100764.58;;;33.29;29.79
40171;BME280;37650;52.790;18.268;2023-06-22T14:08:36;100759.38;;;33.07;29.73
40171;BME280;37650;52.790;18.268;2023-06-22T14:11:57;100762.52;;;32.99;30.02
40171;BME280;37650;52.790;18.268;2023-06-22T14:15:19;100763.59;;;32.91;29.90
40171;BME280;37650;52.790;18.268;2023-06-22T14:18:40;100755.85;;;33.08;30.39
40171;BME280;37650;52.790;18.268;2023-06-22T14:22:02;100751.73;;;33.14;30.49
40171;BME280;37650;52.790;18.268;2023-06-22T14:25:23;100747.84;;;33.08;29.88
40171;BME280;37650;52.790;18.268;2023-06-22T14:28:46;100748.91;;;32.90;30.01
40171;BME280;37650;52.790;18.268;2023-06-22T14:32:09;100746.44;;;32.86;29.93
40171;BME280;37650;52.790;18.268;2023-06-22T14:35:31;100746.36;;;32.69;29.97
40171;BME280;37650;52.790;18.268;2023-06-22T14:38:52;100739.90;;;32.54;29.89
40171;BME280;37650;52.790;18.268;2023-06-22T14:42:13;100742.73;;;32.38;30.28
40171;BME280;37650;52.790;18.268;2023-06-22T14:45:34;100743.20;;;32.29;29.94
40171;BME280;37650;52.790;18.268;2023-06-22T14:48:55;100741.45;;;32.18;29.63
40171;BME280;37650;52.790;18.268;2023-06-22T14:52:16;100738.02;;;32.04;29.46
40171;BME280;37650;52.790;18.268;2023-06-22T14:55:38;100733.42;;;31.84;29.65
40171;BME280;37650;52.790;18.268;2023-06-22T14:58:59;100732.30;;;31.47;29.94
40171;BME280;37650;52.790;18.268;2023-06-22T15:02:20;100731.46;;;31.30;30.65
40171;BME280;37650;52.790;18.268;2023-06-22T15:05:42;100734.70;;;31.28;30.52
40171;BME280;37650;52.790;18.268;2023-06-22T15:09:03;100737.75;;;31.41;30.28
40171;BME280;37650;52.790;18.268;2023-06-22T15:12:24;100740.16;;;31.37;30.50
40171;BME280;37650;52.790;18.268;2023-06-22T15:15:48;100739.70;;;31.33;30.70
40171;BME280;37650;52.790;18.268;2023-06-22T15:19:09;100736.11;;;31.29;31.09
40171;BME280;37650;52.790;18.268;2023-06-22T15:22:33;100737.74;;;31.24;29.95
40171;BME280;37650;52.790;18.268;2023-06-22T15:25:55;100735.48;;;31.02;30.04
40171;BME280;37650;52.790;18.268;2023-06-22T15:29:16;100733.26;;;31.00;30.42
40171;BME280;37650;52.790;18.268;2023-06-22T15:32:37;100736.48;;;30.77;30.82
40171;BME280;37650;52.790;18.268;2023-06-22T15:35:58;100739.05;;;30.72;31.00
40171;BME280;37650;52.790;18.268;2023-06-22T15:39:24;100734.59;;;30.74;30.58
40171;BME280;37650;52.790;18.268;2023-06-22T15:42:50;100735.50;;;30.71;31.09
40171;BME280;37650;52.790;18.268;2023-06-22T15:46:12;100731.52;;;30.74;31.61
40171;BME280;37650;52.790;18.268;2023-06-22T15:49:33;100730.38;;;30.67;31.86
40171;BME280;37650;52.790;18.268;2023-06-22T15:52:54;100730.38;;;30.69;31.71
40171;BME280;37650;52.790;18.268;2023-06-22T15:56:15;100725.73;;;30.66;30.95
40171;BME280;37650;52.790;18.268;2023-06-22T15:59:37;100722.69;;;30.50;30.65
40171;BME280;37650;52.790;18.268;2023-06-22T16:02:58;100717.97;;;30.44;30.80
40171;BME280;37650;52.790;18.268;2023-06-22T16:06:20;100714.33;;;30.41;30.52
40171;BME280;37650;52.790;18.268;2023-06-22T16:09:42;100713.39;;;30.28;30.75
40171;BME280;37650;52.790;18.268;2023-06-22T16:13:03;100716.02;;;30.27;30.70
40171;BME280;37650;52.790;18.268;2023-06-22T16:16:25;100713.02;;;30.20;30.05
40171;BME280;37650;52.790;18.268;2023-06-22T16:19:46;100713.02;;;29.99;30.33
40171;BME280;37650;52.790;18.268;2023-06-22T16:23:08;100715.11;;;29.92;31.26
40171;BME280;37650;52.790;18.268;2023-06-22T16:26:38;100714.29;;;29.93;31.56
40171;BME280;37650;52.790;18.268;2023-06-22T16:30:00;100709.08;;;29.91;31.78
40171;BME280;37650;52.790;18.268;2023-06-22T16:33:22;100710.92;;;29.86;31.69
40171;BME280;37650;52.790;18.268;2023-06-22T16:36:43;100708.35;;;29.80;31.13
40171;BME280;37650;52.790;18.268;2023-06-22T16:40:05;100712.77;;;29.71;31.37
40171;BME280;37650;52.790;18.268;2023-06-22T16:43:30;100708.56;;;29.60;31.66
40171;BME280;37650;52.790;18.268;2023-06-22T16:46:51;100703.48;;;29.44;31.78
40171;BME280;37650;52.790;18.268;2023-06-22T16:50:13;100697.70;;;29.33;32.38
40171;BME280;37650;52.790;18.268;2023-06-22T16:53:34;100694.15;;;29.24;32.41
40171;BME280;37650;52.790;18.268;2023-06-22T16:56:58;100687.65;;;29.16;32.41
40171;BME280;37650;52.790;18.268;2023-06-22T17:00:21;100676.36;;;29.06;32.38
40171;BME280;37650;52.790;18.268;2023-06-22T17:03:46;100667.59;;;28.98;32.35
40171;BME280;37650;52.790;18.268;2023-06-22T17:07:18;100666.88;;;28.94;32.74
40171;BME280;37650;52.790;18.268;2023-06-22T17:10:40;100665.71;;;28.84;32.84
40171;BME280;37650;52.790;18.268;2023-06-22T17:14:02;100662.05;;;28.71;32.77
40171;BME280;37650;52.790;18.268;2023-06-22T17:17:23;100655.73;;;28.61;33.20
40171;BME280;37650;52.790;18.268;2023-06-22T17:20:47;100646.56;;;28.51;33.31
40171;BME280;37650;52.790;18.268;2023-06-22T17:24:09;100638.39;;;28.40;33.88